Time;durP1;ratioP1;P1;durP2;ratioP2;P2;SDS_P1;SDS_P2;PMS_P1;PMS_P2;Temp;Humidity;BMP_temperature;BMP_pressure;BME280_temperature;BME280_humidity;BME280_pressure;Samples;Min_cycle;Max_cycle;Signal;HPM_P1;HPM_P2
2022/08/22 00:03:25;;;;;;;11.57;3.88;;;;;;;21.42;40.50;100514.78;10568127;27;20695;-82
2022/08/22 00:09:03;;;;;;;14.52;3.85;;;;;;;21.37;39.98;100513.09;10550474;28;20274;-83
2022/08/22 00:14:34;;;;;;;7.72;3.88;;;;;;;21.39;40.61;100521.31;10573008;27;20890;-82
2022/08/22 00:20:09;;;;;;;8.07;3.47;;;;;;;21.28;41.31;100514.72;10595365;27;20213;-82
2022/08/22 00:25:34;;;;;;;12.35;3.50;;;;;;;20.93;40.96;100521.97;10554544;28;20190;-82
2022/08/22 00:31:31;;;;;;;9.70;4.05;;;;;;;20.97;41.98;100517.03;10569966;27;20190;-82
2022/08/22 00:37:02;;;;;;;6.53;3.22;;;;;;;20.44;43.10;100511.00;10583072;27;20194;-82
2022/08/22 00:42:51;;;;;;;6.45;3.35;;;;;;;20.75;42.44;100524.69;10554255;27;20222;-83
2022/08/22 00:48:38;;;;;;;10.50;3.33;;;;;;;20.95;42.44;100530.94;10563605;28;20231;-82
2022/08/22 00:54:14;;;;;;;7.35;3.47;;;;;;;20.57;43.04;100520.06;10573324;27;20206;-83
2022/08/22 00:59:42;;;;;;;7.57;3.60;;;;;;;20.49;43.33;100521.25;10564960;28;20296;-82
2022/08/22 01:05:33;;;;;;;10.40;3.45;;;;;;;20.56;43.33;100519.28;10589781;27;20197;-82
2022/08/22 01:10:58;;;;;;;6.18;2.70;;;;;;;20.83;42.42;100516.16;10578152;27;20296;-82
2022/08/22 01:16:57;;;;;;;7.03;3.20;;;;;;;20.57;42.56;100514.34;10559751;28;20239;-82
2022/08/22 01:22:43;;;;;;;10.23;3.40;;;;;;;20.37;43.75;100510.97;10578225;28;20253;-82
2022/08/22 01:28:17;;;;;;;6.07;3.10;;;;;;;20.52;42.87;100514.75;10576561;28;20198;-82
2022/08/22 01:34:01;;;;;;;9.85;4.40;;;;;;;20.56;42.45;100512.72;10538920;28;20202;-82
2022/08/22 01:40:00;;;;;;;7.57;3.10;;;;;;;19.33;45.81;100525.50;10562292;28;20189;-82
2022/08/22 01:45:50;;;;;;;13.20;4.18;;;;;;;19.49;45.45;100514.66;10579043;28;20595;-82
2022/08/22 01:51:25;;;;;;;6.40;3.67;;;;;;;19.31;46.37;100516.47;10551724;28;20201;-82
2022/08/22 01:56:48;;;;;;;8.00;3.50;;;;;;;20.05;44.48;100513.53;10580120;27;20272;-82
2022/08/22 02:02:32;;;;;;;9.97;3.60;;;;;;;19.96;44.23;100516.75;10549971;28;20213;-82
2022/08/22 02:08:21;;;;;;;6.13;3.53;;;;;;;19.98;44.52;100517.19;10556020;28;20214;-83
2022/08/22 02:13:58;;;;;;;7.55;3.85;;;;;;;19.92;44.68;100518.75;10586184;27;20274;-83
2022/08/22 02:19:28;;;;;;;7.93;3.50;;;;;;;20.07;44.22;100513.97;10564248;28;20186;-82
2022/08/22 02:24:59;;;;;;;7.07;3.75;;;;;;;19.95;45.01;100512.25;10550028;28;20279;-82
2022/08/22 02:30:28;;;;;;;8.70;3.83;;;;;;;19.90;44.76;100514.66;10557182;28;20206;-83
2022/08/22 02:35:55;;;;;;;6.53;3.88;;;;;;;20.08;44.17;100499.28;10542051;28;20206;-83
2022/08/22 02:41:28;;;;;;;7.13;3.70;;;;;;;19.99;44.29;100492.25;10527260;28;20674;-83
2022/08/22 02:47:03;;;;;;;7.07;3.60;;;;;;;19.65;44.98;100503.78;10534442;27;20205;-83
2022/08/22 02:52:45;;;;;;;9.27;4.38;;;;;;;19.83;44.58;100494.56;10559528;27;20206;-82
2022/08/22 02:58:18;;;;;;;7.17;3.80;;;;;;;19.55;45.23;100501.63;10583703;27;20202;-82
2022/08/22 03:03:42;;;;;;;5.78;3.53;;;;;;;19.77;44.87;100493.31;10563107;27;20301;-83
2022/08/22 03:09:18;;;;;;;9.03;4.90;;;;;;;19.68;44.93;100485.84;10552411;28;20209;-83
2022/08/22 03:14:44;;;;;;;5.68;4.57;;;;;;;19.72;45.03;100483.03;10546882;28;20835;-82
2022/08/22 03:20:10;;;;;;;11.33;5.47;;;;;;;19.56;45.48;100477.56;10562291;28;20683;-83
2022/08/22 03:25:37;;;;;;;9.90;4.90;;;;;;;19.78;44.64;100480.66;10561076;28;20251;-83
2022/08/22 03:31:09;;;;;;;11.18;4.82;;;;;;;19.67;45.29;100481.34;10554745;28;20213;-83
2022/08/22 03:36:31;;;;;;;8.80;5.97;;;;;;;19.47;46.00;100479.91;10584602;28;20202;-83
2022/08/22 03:42:16;;;;;;;10.67;5.57;;;;;;;19.22;46.63;100473.13;10562339;28;20266;-83
2022/08/22 03:48:01;;;;;;;9.57;5.90;;;;;;;19.42;45.84;100471.69;10571044;28;20265;-83
2022/08/22 03:53:45;;;;;;;10.80;5.85;;;;;;;19.57;45.38;100472.69;10596351;28;20544;-83
2022/08/22 03:59:14;;;;;;;10.63;5.63;;;;;;;19.42;45.77;100471.69;10592307;28;20666;-83
2022/08/22 04:04:39;;;;;;;13.63;5.87;;;;;;;19.28;46.06;100469.50;10552096;27;20690;-84
2022/08/22 04:10:39;;;;;;;9.73;6.47;;;;;;;19.37;46.00;100474.91;10595218;27;20263;-83
2022/08/22 04:16:38;;;;;;;9.23;5.50;;;;;;;18.89;46.78;100477.59;10595499;27;20251;-83
2022/08/22 04:22:14;;;;;;;9.40;5.47;;;;;;;17.86;48.62;100480.94;10560692;28;20217;-82
2022/08/22 04:27:46;;;;;;;10.35;5.20;;;;;;;18.66;48.11;100488.31;10571443;28;20254;-83
2022/08/22 04:33:15;;;;;;;8.90;5.75;;;;;;;18.55;48.42;100487.34;10555661;27;20229;-82
2022/08/22 04:38:47;;;;;;;6.33;5.00;;;;;;;19.11;46.51;100489.31;10565320;28;20262;-83
2022/08/22 04:44:42;;;;;;;8.18;4.35;;;;;;;19.17;45.85;100477.13;10535650;27;20298;-82
2022/08/22 04:50:20;;;;;;;6.00;4.00;;;;;;;18.90;46.75;100479.22;10553154;27;20226;-82
2022/08/22 04:56:02;;;;;;;7.93;4.40;;;;;;;19.19;45.57;100491.03;10577767;27;20598;-82
2022/08/22 05:01:38;;;;;;;9.63;4.20;;;;;;;19.25;45.76;100486.63;10553549;28;20505;-82
2022/08/22 05:07:03;;;;;;;8.45;4.38;;;;;;;19.45;45.61;100490.09;10551546;28;20226;-82
2022/08/22 05:12:31;;;;;;;9.13;4.70;;;;;;;19.38;45.68;100488.00;10570720;27;20793;-83
2022/08/22 05:17:57;;;;;;;6.17;4.90;;;;;;;18.51;48.42;100490.13;10546888;27;20259;-84
2022/08/22 05:23:23;;;;;;;8.30;4.73;;;;;;;19.22;46.97;100495.97;10563625;28;20275;-84
2022/08/22 05:28:49;;;;;;;7.60;4.63;;;;;;;19.32;46.13;100493.22;10568822;27;20197;-84
2022/08/22 05:34:24;;;;;;;6.32;4.63;;;;;;;19.04;46.43;100502.28;10557434;28;20190;-84
2022/08/22 05:39:49;;;;;;;8.70;5.20;;;;;;;18.64;47.60;100516.41;10572973;28;20219;-84
2022/08/22 05:45:12;;;;;;;10.10;5.40;;;;;;;18.72;47.39;100512.47;10569959;27;20270;-84
2022/08/22 05:50:38;;;;;;;12.00;5.85;;;;;;;18.72;47.68;100506.75;10568611;27;20190;-84
2022/08/22 05:56:06;;;;;;;13.70;5.97;;;;;;;19.55;45.91;100503.66;10572394;28;20547;-84
2022/08/22 06:01:36;;;;;;;10.33;6.20;;;;;;;19.83;45.46;100512.53;10554508;28;20247;-84
2022/08/22 06:07:05;;;;;;;10.83;6.00;;;;;;;19.47;45.83;100508.50;10549131;28;20222;-84
2022/08/22 06:12:35;;;;;;;10.25;6.88;;;;;;;20.03;44.08;100502.53;10591750;27;20734;-84
2022/08/22 06:18:04;;;;;;;12.07;7.38;;;;;;;20.30;43.45;100494.53;10583432;27;20247;-85
2022/08/22 06:23:51;;;;;;;11.90;6.80;;;;;;;20.45;43.35;100501.19;10552619;28;20613;-84
2022/08/22 06:29:31;;;;;;;13.20;7.47;;;;;;;21.09;41.95;100496.63;10571205;28;20189;-84
2022/08/22 06:35:00;;;;;;;9.90;8.45;;;;;;;20.81;42.30;100507.97;10570618;28;20193;-84
2022/08/22 06:40:23;;;;;;;15.20;8.38;;;;;;;21.27;41.81;100513.06;10556071;27;20194;-84
2022/08/22 06:45:45;;;;;;;13.35;7.68;;;;;;;21.58;41.73;100518.09;10541786;28;20198;-84
2022/08/22 06:51:10;;;;;;;11.45;8.13;;;;;;;21.83;41.79;100518.94;10550110;27;20198;-84
2022/08/22 06:56:38;;;;;;;12.80;8.35;;;;;;;21.60;41.22;100511.97;10573983;27;20246;-84
2022/08/22 07:02:04;;;;;;;17.08;9.00;;;;;;;20.53;44.21;100524.97;10544652;27;20241;-84
2022/08/22 07:07:26;;;;;;;9.32;7.47;;;;;;;20.55;43.09;100523.38;10568435;27;20218;-84
2022/08/22 07:12:53;;;;;;;10.43;6.78;;;;;;;21.77;41.21;100516.88;10576229;27;20277;-85
2022/08/22 07:18:22;;;;;;;10.95;6.38;;;;;;;22.31;39.87;100515.69;10554290;27;20286;-84
2022/08/22 07:23:46;;;;;;;10.02;6.85;;;;;;;22.39;40.32;100517.28;10562083;28;20297;-84
2022/08/22 07:29:30;;;;;;;11.68;7.03;;;;;;;22.38;40.61;100515.66;10549122;28;20229;-84
2022/08/22 07:35:10;;;;;;;11.75;6.88;;;;;;;22.57;38.99;100522.22;10572569;28;20221;-84
2022/08/22 07:41:11;;;;;;;9.55;7.65;;;;;;;21.54;40.65;100523.00;10560980;28;20267;-85
2022/08/22 07:46:46;;;;;;;14.48;9.05;;;;;;;22.30;40.50;100518.97;10580059;28;20283;-83
2022/08/22 07:52:10;;;;;;;15.27;8.63;;;;;;;22.16;39.33;100519.78;10549267;28;20251;-84
2022/08/22 07:57:42;;;;;;;17.17;8.07;;;;;;;22.41;39.41;100526.31;10559266;28;20260;-84
2022/08/22 08:03:06;;;;;;;13.50;7.82;;;;;;;23.27;38.28;100514.59;10574044;28;20269;-84
2022/08/22 08:08:33;;;;;;;11.82;7.05;;;;;;;21.18;41.53;100526.97;10569826;28;20302;-84
2022/08/22 08:13:59;;;;;;;15.27;5.93;;;;;;;21.45;40.94;100528.31;10583687;27;20633;-83
2022/08/22 08:19:23;;;;;;;11.25;6.03;;;;;;;22.44;39.75;100516.88;10575951;28;20210;-84
2022/08/22 08:24:47;;;;;;;7.90;4.97;;;;;;;23.86;36.57;100509.72;10583853;27;20697;-84
2022/08/22 08:30:15;;;;;;;10.23;5.45;;;;;;;24.18;35.46;100500.81;10583084;27;20189;-83
2022/08/22 08:35:39;;;;;;;12.13;5.20;;;;;;;24.05;35.60;100508.34;10558974;28;20198;-83
2022/08/22 08:41:08;;;;;;;11.82;5.45;;;;;;;24.19;34.37;100496.72;10575900;28;20520;-83
2022/08/22 08:47:02;;;;;;;9.68;4.55;;;;;;;23.78;36.12;100485.94;10590784;28;20186;-83
2022/08/22 08:53:00;;;;;;;8.23;3.70;;;;;;;22.27;37.81;100486.13;10583193;27;20251;-84
2022/08/22 08:59:06;;;;;;;8.13;3.35;;;;;;;24.20;33.81;100470.34;10555510;28;20210;-84
2022/08/22 09:04:43;;;;;;;9.65;2.80;;;;;;;22.53;35.91;100470.47;10579781;27;20221;-83
2022/08/22 09:10:36;;;;;;;8.20;2.55;;;;;;;23.01;35.21;100467.88;10557272;28;20245;-83
2022/08/22 09:16:23;;;;;;;7.13;2.45;;;;;;;23.07;35.20;100460.44;10560764;28;20182;-83
2022/08/22 09:22:06;;;;;;;5.32;2.22;;;;;;;24.50;31.90;100448.63;10569613;27;20220;-83
2022/08/22 09:27:44;;;;;;;6.43;2.47;;;;;;;24.48;31.57;100440.41;10583922;27;20235;-84
2022/08/22 09:33:15;;;;;;;4.18;1.50;;;;;;;25.13;30.32;100438.38;10574972;27;20186;-84
2022/08/22 09:39:01;;;;;;;3.05;1.23;;;;;;;25.53;28.85;100441.50;10563755;27;20598;-84
2022/08/22 09:44:41;;;;;;;6.30;1.75;;;;;;;25.11;28.30;100438.00;10571415;27;20217;-84
2022/08/22 09:50:29;;;;;;;4.82;1.67;;;;;;;24.45;29.34;100424.00;10569990;28;20239;-83
2022/08/22 09:56:06;;;;;;;9.95;2.13;;;;;;;24.51;30.08;100418.59;10587459;27;20185;-84
2022/08/22 10:01:48;;;;;;;3.63;1.80;;;;;;;25.57;28.26;100413.41;10564362;27;20317;-83
2022/08/22 10:07:32;;;;;;;3.90;1.80;;;;;;;25.52;28.91;100408.13;10565524;27;20287;-83
2022/08/22 10:13:02;;;;;;;7.07;2.20;;;;;;;26.30;27.87;100406.78;10568695;27;20274;-83
2022/08/22 10:18:36;;;;;;;5.47;1.90;;;;;;;25.94;27.57;100397.94;10588304;27;20610;-83
2022/08/22 10:24:05;;;;;;;4.50;1.85;;;;;;;26.14;27.60;100406.66;10548770;27;20230;-84
2022/08/22 10:29:45;;;;;;;4.72;1.83;;;;;;;25.39;28.90;100396.38;10551721;27;20210;-84
2022/08/22 10:35:27;;;;;;;4.22;1.52;;;;;;;26.40;26.25;100385.53;10557310;27;20231;-84
2022/08/22 10:41:03;;;;;;;3.90;1.45;;;;;;;25.67;26.60;100395.09;10560109;28;20252;-84
2022/08/22 10:46:33;;;;;;;4.43;1.52;;;;;;;26.71;26.66;100389.00;10575100;28;20194;-84
2022/08/22 10:52:38;;;;;;;5.55;1.30;;;;;;;26.70;26.76;100393.16;10561701;28;20202;-85
2022/08/22 10:58:10;;;;;;;3.78;1.13;;;;;;;27.46;26.11;100379.44;10531700;27;20262;-84
2022/08/22 11:03:41;;;;;;;5.70;1.33;;;;;;;27.04;25.57;100379.19;10547587;27;20233;-84
2022/08/22 11:09:22;;;;;;;4.82;1.20;;;;;;;27.29;26.01;100377.81;10580406;28;20266;-84
2022/08/22 11:15:38;;;;;;;2.97;1.30;;;;;;;27.33;25.67;100373.56;10574283;28;20193;-84
2022/08/22 11:21:22;;;;;;;5.03;1.20;;;;;;;27.67;24.84;100367.31;10405875;28;20678;-84
2022/08/22 11:26:56;;;;;;;4.05;1.58;;;;;;;27.36;25.51;100366.88;10561064;28;20230;-84
2022/08/22 11:33:10;;;;;;;2.65;1.25;;;;;;;26.97;25.63;100352.50;10562959;28;20194;-84
2022/08/22 11:38:34;;;;;;;8.18;1.75;;;;;;;27.46;24.84;100353.38;10532816;28;20202;-84
2022/08/22 11:44:17;;;;;;;5.80;1.40;;;;;;;26.62;26.26;100351.22;10527678;28;20256;-84
2022/08/22 11:49:54;;;;;;;5.47;1.75;;;;;;;26.23;26.51;100340.44;10569243;27;20593;-84
2022/08/22 11:55:26;;;;;;;3.80;1.52;;;;;;;26.33;26.46;100345.22;10590785;27;20235;-84
2022/08/22 12:01:16;;;;;;;5.65;1.58;;;;;;;26.08;27.14;100334.13;10556673;27;20655;-84
2022/08/22 12:07:01;;;;;;;3.58;1.50;;;;;;;26.95;26.28;100329.81;10565847;27;20230;-84
2022/08/22 12:12:41;;;;;;;5.75;1.60;;;;;;;27.43;25.41;100325.38;10551287;28;20278;-84
2022/08/22 12:18:43;;;;;;;5.38;1.67;;;;;;;26.45;26.65;100321.41;10559671;27;20255;-84
2022/08/22 12:24:19;;;;;;;5.15;1.52;;;;;;;26.84;25.89;100322.66;10592428;27;20206;-85
2022/08/22 12:30:03;;;;;;;7.50;1.92;;;;;;;27.30;25.48;100316.59;10582744;27;20475;-84
2022/08/22 12:35:59;;;;;;;4.35;1.60;;;;;;;26.39;26.76;100314.56;10568228;28;20189;-85
2022/08/22 12:41:37;;;;;;;4.68;1.60;;;;;;;27.33;25.27;100301.19;10573522;28;20247;-85
2022/08/22 12:47:18;;;;;;;4.10;1.45;;;;;;;28.03;25.73;100288.97;10550604;27;20210;-84
2022/08/22 12:52:43;;;;;;;2.75;1.25;;;;;;;28.09;24.40;100289.25;10569696;27;20194;-84
2022/08/22 12:58:59;;;;;;;5.40;1.60;;;;;;;28.26;25.55;100284.19;10587572;28;20202;-84
2022/08/22 13:04:27;;;;;;;8.43;2.58;;;;;;;26.74;26.36;100302.19;10471375;27;20288;-84
2022/08/22 13:09:56;;;;;;;5.18;1.65;;;;;;;28.24;25.63;100286.75;10567133;28;20292;-85
2022/08/22 13:15:29;;;;;;;4.20;1.88;;;;;;;27.57;25.50;100298.13;10568135;28;20255;-84
2022/08/22 13:20:54;;;;;;;6.18;1.45;;;;;;;28.10;25.16;100291.66;10556636;27;20194;-84
2022/08/22 13:26:26;;;;;;;7.13;1.70;;;;;;;27.15;26.32;100295.03;10542049;27;20249;-84
2022/08/22 13:32:00;;;;;;;1.77;1.50;;;;;;;28.29;24.85;100286.19;10564572;27;20374;-84
2022/08/22 13:37:43;;;;;;;3.13;1.75;;;;;;;28.48;24.76;100285.19;10571435;28;20201;-84
2022/08/22 13:43:11;;;;;;;4.13;1.55;;;;;;;28.75;24.85;100282.69;10570512;27;20206;-84
2022/08/22 13:48:48;;;;;;;4.07;1.90;;;;;;;28.11;24.72;100272.19;10551187;27;20246;-84
2022/08/22 13:54:10;;;;;;;5.78;1.75;;;;;;;28.35;24.43;100276.47;10563433;28;20266;-85
2022/08/22 13:59:37;;;;;;;5.10;1.35;;;;;;;28.41;25.75;100273.81;10556658;28;20594;-84
2022/08/22 14:05:21;;;;;;;3.50;1.95;;;;;;;28.41;25.36;100273.81;10565307;27;20299;-84
2022/08/22 14:10:56;;;;;;;4.78;1.77;;;;;;;28.97;25.12;100271.22;10563867;28;20286;-86
2022/08/22 14:16:25;;;;;;;5.10;1.40;;;;;;;27.74;25.67;100267.84;10544252;28;20202;-85
2022/08/22 14:21:51;;;;;;;3.40;1.80;;;;;;;28.76;24.38;100269.81;10563492;28;20445;-85
2022/08/22 14:27:15;;;;;;;4.63;1.42;;;;;;;27.76;25.04;100268.22;10582471;27;20213;-85
2022/08/22 14:32:55;;;;;;;4.75;1.70;;;;;;;28.80;24.67;100267.59;10550614;28;20194;-85
2022/08/22 14:38:37;;;;;;;2.45;1.33;;;;;;;27.58;25.83;100273.66;10550675;28;20194;-85
2022/08/22 14:44:02;;;;;;;3.42;1.40;;;;;;;27.81;25.21;100259.00;10575227;28;20242;-85
2022/08/22 14:49:34;;;;;;;3.70;1.70;;;;;;;28.42;24.48;100249.34;10566417;27;20224;-85
2022/08/22 14:55:17;;;;;;;4.45;1.90;;;;;;;28.29;25.00;100254.31;10563677;28;20218;-85
2022/08/22 15:00:43;;;;;;;6.30;1.83;;;;;;;29.34;24.27;100255.03;10579240;27;20263;-84
2022/08/22 15:06:11;;;;;;;4.97;1.80;;;;;;;28.33;24.57;100255.00;10540816;27;20357;-85
2022/08/22 15:11:33;;;;;;;6.18;2.00;;;;;;;29.02;26.11;100249.47;10559040;27;20261;-84
2022/08/22 15:17:00;;;;;;;2.85;1.75;;;;;;;28.60;24.80;100237.19;10548711;27;20213;-84
2022/08/22 15:22:25;;;;;;;3.25;1.48;;;;;;;28.77;24.29;100238.72;10535514;28;20613;-84
2022/08/22 15:28:01;;;;;;;4.57;1.55;;;;;;;28.21;23.90;100230.50;10539536;28;20220;-83
2022/08/22 15:33:31;;;;;;;5.50;1.80;;;;;;;28.01;25.07;100230.66;10557908;28;20225;-83
2022/08/22 15:38:57;;;;;;;3.50;1.52;;;;;;;26.59;26.18;100234.38;10575444;28;20274;-81
2022/08/22 15:44:19;;;;;;;4.18;1.63;;;;;;;28.76;24.18;100232.09;10523932;28;20253;-82
2022/08/22 15:49:51;;;;;;;4.07;1.85;;;;;;;28.04;25.00;100232.66;10564702;28;20792;-82
2022/08/22 15:55:18;;;;;;;5.82;1.98;;;;;;;28.56;24.38;100234.38;10544866;28;20224;-82
2022/08/22 16:01:06;;;;;;;8.98;2.30;;;;;;;28.87;23.40;100220.16;10513459;28;20257;-82
2022/08/22 16:06:47;;;;;;;6.07;2.42;;;;;;;28.67;24.35;100222.44;10541235;28;20824;-81
2022/08/22 16:12:11;;;;;;;4.65;1.90;;;;;;;28.57;24.79;100212.81;10528359;28;20298;-82
2022/08/22 16:17:41;;;;;;;3.78;1.88;;;;;;;28.27;24.09;100222.06;10564868;28;20599;-82
2022/08/22 16:23:03;;;;;;;5.40;2.22;;;;;;;27.98;24.85;100217.09;10537817;28;20706;-82
2022/08/22 16:28:28;;;;;;;7.57;2.00;;;;;;;27.61;26.47;100214.84;10557599;28;20225;-82
2022/08/22 16:33:50;;;;;;;6.07;1.40;;;;;;;27.74;26.68;100225.25;10566105;27;20306;-82
2022/08/22 16:39:39;;;;;;;5.80;2.40;;;;;;;28.21;25.67;100221.00;10527515;27;20235;-81
2022/08/22 16:45:04;;;;;;;3.78;1.70;;;;;;;28.01;25.52;100221.97;10574192;28;20331;-81
2022/08/22 16:50:34;;;;;;;5.28;1.42;;;;;;;26.63;28.10;100226.44;10542462;27;20334;-82
2022/08/22 16:56:06;;;;;;;6.40;1.75;;;;;;;26.91;27.49;100227.88;10544852;28;20256;-82
2022/08/22 17:01:53;;;;;;;5.43;1.80;;;;;;;27.36;26.47;100225.03;10565598;28;20588;-83
2022/08/22 17:07:42;;;;;;;8.77;6.57;;;;;;;27.50;26.70;100223.03;10571677;28;20710;-80
2022/08/22 17:13:20;;;;;;;2.80;1.60;;;;;;;27.80;25.48;100216.81;10546843;27;20257;-82
2022/08/22 17:18:52;;;;;;;5.75;2.30;;;;;;;27.65;26.54;100222.19;10556080;27;20243;-80
2022/08/22 17:24:32;;;;;;;4.50;1.77;;;;;;;27.53;27.21;100219.22;10539568;28;20305;-84
2022/08/22 17:29:59;;;;;;;6.53;2.05;;;;;;;27.45;26.58;100224.38;10559231;28;20255;-83
2022/08/22 17:35:44;;;;;;;4.93;2.00;;;;;;;27.34;27.87;100218.88;10569413;28;20230;-83
2022/08/22 17:41:29;;;;;;;3.33;1.70;;;;;;;27.73;27.63;100219.88;10531966;27;20221;-84
2022/08/22 17:47:01;;;;;;;6.18;2.05;;;;;;;27.66;27.04;100223.00;10472555;28;20238;-84
2022/08/22 17:52:36;;;;;;;4.75;2.45;;;;;;;27.66;26.88;100217.19;10506663;28;20675;-83
2022/08/22 17:58:11;;;;;;;3.25;1.52;;;;;;;27.25;27.12;100221.59;10516557;28;20218;-84
2022/08/22 18:03:37;;;;;;;4.28;1.63;;;;;;;27.37;26.47;100225.84;10508133;28;20273;-85
2022/08/22 18:09:08;;;;;;;4.32;1.83;;;;;;;27.17;26.93;100230.94;10502806;28;20295;-83
2022/08/22 18:14:49;;;;;;;4.53;1.67;;;;;;;26.80;27.35;100238.03;10506878;28;20242;-83
2022/08/22 18:20:16;;;;;;;4.20;1.75;;;;;;;26.55;27.24;100233.66;10500806;28;20260;-83
2022/08/22 18:25:41;;;;;;;4.68;1.55;;;;;;;26.86;26.69;100233.38;10520535;28;20630;-81
2022/08/22 18:31:18;;;;;;;3.85;1.60;;;;;;;26.51;26.84;100241.59;10488969;28;20279;-83
2022/08/22 18:36:48;;;;;;;4.57;1.95;;;;;;;26.40;27.41;100252.59;10505852;28;20303;-82
2022/08/22 18:42:23;;;;;;;7.20;2.20;;;;;;;26.27;27.53;100255.38;10494416;28;20250;-82
2022/08/22 18:47:53;;;;;;;5.68;3.70;;;;;;;25.89;28.43;100252.00;10529948;28;20364;-82
2022/08/22 18:53:36;;;;;;;4.85;1.52;;;;;;;25.86;29.93;100258.66;10510890;28;20237;-83
2022/08/22 18:59:02;;;;;;;4.65;1.80;;;;;;;26.00;29.73;100257.56;10516500;28;20252;-83
2022/08/22 19:04:42;;;;;;;2.47;1.70;;;;;;;26.03;28.56;100262.44;10531840;28;20264;-83
2022/08/22 19:10:35;;;;;;;4.70;2.08;;;;;;;25.92;28.77;100268.44;10534710;28;20304;-84
2022/08/22 19:16:27;;;;;;;7.70;1.77;;;;;;;25.03;29.91;100277.03;10529226;28;20210;-83
2022/08/22 19:22:17;;;;;;;3.20;1.88;;;;;;;25.55;29.31;100283.16;10506748;28;20228;-84
2022/08/22 19:28:09;;;;;;;2.80;2.03;;;;;;;25.50;29.87;100281.59;10529580;28;20294;-83
2022/08/22 19:33:47;;;;;;;3.75;1.60;;;;;;;25.51;29.44;100283.22;10531157;28;20260;-83
2022/08/22 19:39:11;;;;;;;7.50;2.20;;;;;;;25.67;29.99;100286.22;10515756;28;20224;-83
2022/08/22 19:44:41;;;;;;;2.60;1.90;;;;;;;25.37;30.52;100300.00;10520877;28;20617;-82
2022/08/22 19:50:15;;;;;;;3.67;1.92;;;;;;;25.75;30.39;100288.97;10535462;28;20207;-83
2022/08/22 19:55:37;;;;;;;3.67;2.05;;;;;;;25.34;30.58;100293.84;10531588;28;20572;-83
2022/08/22 20:01:27;;;;;;;2.40;1.85;;;;;;;25.20;31.15;100294.06;10533080;28;20206;-84
2022/08/22 20:07:46;;;;;;;4.72;2.20;;;;;;;25.21;31.23;100295.69;10534675;28;20225;-83
2022/08/22 20:13:19;;;;;;;4.18;2.40;;;;;;;25.44;30.89;100285.44;10456043;28;20218;-82
2022/08/22 20:19:03;;;;;;;3.88;2.22;;;;;;;25.48;30.40;100294.84;10524004;28;20207;-82
2022/08/22 20:25:00;;;;;;;5.45;2.03;;;;;;;25.03;32.17;100297.22;10536789;28;20326;-81
2022/08/22 20:30:23;;;;;;;2.22;1.90;;;;;;;25.25;31.67;100293.56;10522806;28;20206;-82
2022/08/22 20:35:54;;;;;;;3.53;2.20;;;;;;;24.99;32.24;100291.50;10542725;28;20217;-82
2022/08/22 20:41:20;;;;;;;5.20;2.60;;;;;;;24.93;32.30;100285.44;10528384;28;20218;-82
2022/08/22 20:46:45;;;;;;;3.13;1.88;;;;;;;24.68;32.04;100293.63;10541146;28;20263;-82
2022/08/22 20:52:11;;;;;;;7.03;2.42;;;;;;;24.75;32.85;100286.94;10541948;28;20224;-82
2022/08/22 20:57:35;;;;;;;4.97;1.88;;;;;;;24.82;31.84;100287.66;10527816;28;20214;-82
2022/08/22 21:03:03;;;;;;;3.88;1.60;;;;;;;24.34;33.21;100290.78;10516955;28;20200;-83
2022/08/22 21:08:25;;;;;;;3.80;1.88;;;;;;;24.78;31.91;100281.13;10538982;28;20222;-81
2022/08/22 21:13:48;;;;;;;4.15;1.70;;;;;;;24.76;31.51;100288.59;10530623;28;20714;-82
2022/08/22 21:19:19;;;;;;;5.30;2.17;;;;;;;24.74;32.43;100286.13;10548482;28;20666;-82
2022/08/22 21:24:42;;;;;;;4.40;1.65;;;;;;;22.42;36.26;100301.06;10548296;28;20210;-83
2022/08/22 21:30:08;;;;;;;1.92;1.75;;;;;;;22.51;36.46;100300.63;10541660;28;20687;-83
2022/08/22 21:35:32;;;;;;;3.65;2.00;;;;;;;24.17;33.58;100289.75;10548108;28;20197;-82
2022/08/22 21:41:00;;;;;;;5.82;2.17;;;;;;;24.40;34.73;100296.91;10535723;28;20263;-82
2022/08/22 21:46:27;;;;;;;6.57;1.85;;;;;;;24.77;33.03;100284.44;10529882;28;20248;-82
2022/08/22 21:51:50;;;;;;;6.72;2.40;;;;;;;24.27;33.84;100285.13;10529014;28;20464;-82
2022/08/22 21:57:15;;;;;;;4.90;2.00;;;;;;;22.89;35.63;100288.09;10522235;28;20214;-82
2022/08/22 22:02:41;;;;;;;2.83;2.00;;;;;;;23.88;34.77;100292.16;10540511;28;20244;-82
2022/08/22 22:08:03;;;;;;;4.25;2.08;;;;;;;22.68;36.04;100293.97;10531019;28;20283;-83
2022/08/22 22:13:26;;;;;;;4.57;1.63;;;;;;;23.21;35.52;100296.50;10549451;28;20226;-84
2022/08/22 22:18:49;;;;;;;5.00;2.08;;;;;;;24.54;32.71;100288.06;10536419;28;20242;-83
2022/08/22 22:24:11;;;;;;;5.93;1.85;;;;;;;24.59;32.37;100293.31;10546944;28;20275;-83
2022/08/22 22:29:34;;;;;;;2.60;1.75;;;;;;;24.66;32.75;100293.22;10525924;28;20709;-83
2022/08/22 22:34:56;;;;;;;2.63;2.00;;;;;;;24.55;32.34;100296.28;10513367;28;20202;-84
2022/08/22 22:40:18;;;;;;;3.67;2.17;;;;;;;24.55;33.53;100292.56;10523265;28;20363;-83
2022/08/22 22:45:40;;;;;;;5.07;2.10;;;;;;;24.68;32.85;100287.84;10517815;28;20244;-83
2022/08/22 22:51:08;;;;;;;2.53;1.75;;;;;;;24.51;32.77;100289.72;10549921;28;20288;-83
2022/08/22 22:56:30;;;;;;;2.92;1.95;;;;;;;24.38;33.69;100290.75;10531746;28;20237;-83
2022/08/22 23:02:07;;;;;;;3.30;1.83;;;;;;;24.25;34.75;100290.50;10525505;28;20194;-83
2022/08/22 23:07:29;;;;;;;3.50;1.95;;;;;;;24.50;32.84;100288.09;10524653;28;20222;-83
2022/08/22 23:12:51;;;;;;;3.65;1.85;;;;;;;24.67;32.97;100287.03;10512577;28;20231;-83
2022/08/22 23:18:13;;;;;;;5.18;2.63;;;;;;;24.17;34.24;100288.94;10479167;28;20504;-83
2022/08/22 23:23:36;;;;;;;4.80;2.35;;;;;;;24.29;33.72;100294.16;10417196;28;20868;-83
2022/08/22 23:28:58;;;;;;;5.32;2.42;;;;;;;23.72;34.66;100297.66;10474315;28;20685;-82
2022/08/22 23:34:25;;;;;;;5.22;2.85;;;;;;;23.86;34.85;100300.41;10476027;28;20249;-83
2022/08/22 23:39:48;;;;;;;4.32;2.78;;;;;;;23.68;35.48;100298.97;10425508;28;20203;-83
2022/08/22 23:45:10;;;;;;;7.20;2.40;;;;;;;23.63;35.66;100294.47;10451676;28;20836;-83
2022/08/22 23:50:33;;;;;;;6.35;2.45;;;;;;;23.55;35.46;100290.81;10448453;28;20798;-83
2022/08/22 23:55:55;;;;;;;7.03;2.55;;;;;;;23.30;35.78;100295.16;10464896;28;20272;-83
